createdAt,value
2018-01-29T00:01:43.758Z,101661
2018-01-29T00:04:12.002Z,101669
2018-01-29T00:06:40.197Z,101649
2018-01-29T00:09:09.364Z,101656
2018-01-29T00:11:37.559Z,101677
2018-01-29T00:14:06.543Z,101682
2018-01-29T00:16:35.486Z,101647
2018-01-29T00:19:03.725Z,101658
2018-01-29T00:21:32.721Z,101659
2018-01-29T00:24:01.390Z,101661
2018-01-29T00:26:30.334Z,101658
2018-01-29T00:28:58.544Z,101673
2018-01-29T00:31:27.344Z,101655
2018-01-29T00:33:56.678Z,101639
2018-01-29T00:36:24.930Z,101630
2018-01-29T00:38:53.893Z,101651
2018-01-29T00:41:22.096Z,101640
2018-01-29T00:43:51.050Z,101637
2018-01-29T00:46:19.359Z,101636
2018-01-29T00:48:48.341Z,101644
2018-01-29T00:51:17.298Z,101653
2018-01-29T00:53:45.499Z,101646
2018-01-29T00:56:13.710Z,101649
2018-01-29T00:58:41.947Z,101641
2018-01-29T01:01:10.122Z,101651
2018-01-29T01:03:38.346Z,101643
2018-01-29T01:06:06.538Z,101649
2018-01-29T01:08:34.830Z,101649
2018-01-29T01:11:03.045Z,101655
2018-01-29T01:13:31.307Z,101669
2018-01-29T01:16:00.305Z,101666
2018-01-29T01:18:29.261Z,101639
2018-01-29T01:20:57.550Z,101656
2018-01-29T01:23:25.785Z,101664
2018-01-29T01:25:54.806Z,101656
2018-01-29T01:28:23.002Z,101650
2018-01-29T01:30:51.998Z,101638
2018-01-29T01:33:20.952Z,101653
2018-01-29T01:35:49.593Z,101644
2018-01-29T01:38:17.844Z,101633
2018-01-29T01:40:46.790Z,101635
2018-01-29T01:43:14.999Z,101630
2018-01-29T01:45:43.202Z,101641
2018-01-29T01:48:11.386Z,101631
2018-01-29T01:50:39.910Z,101634
2018-01-29T01:53:08.122Z,101633
2018-01-29T01:55:36.302Z,101633
2018-01-29T01:58:04.490Z,101636
2018-01-29T02:00:33.466Z,101643
2018-01-29T02:03:01.687Z,101609
2018-01-29T02:05:29.886Z,101630
2018-01-29T02:07:58.103Z,101622
2018-01-29T02:10:26.345Z,101605
2018-01-29T02:12:55.333Z,101618
2018-01-29T02:15:24.333Z,101602
2018-01-29T02:17:53.278Z,101622
2018-01-29T02:20:21.486Z,101618
2018-01-29T02:22:50.481Z,101619
2018-01-29T02:25:18.678Z,101625
2018-01-29T02:27:46.906Z,101609
2018-01-29T02:30:15.088Z,101624
2018-01-29T02:32:43.258Z,101598
2018-01-29T02:35:11.459Z,101604
2018-01-29T02:37:40.424Z,101599
2018-01-29T02:40:08.642Z,101609
2018-01-29T02:42:36.866Z,101583
2018-01-29T02:45:05.038Z,101584
2018-01-29T02:47:33.237Z,101596
2018-01-29T02:50:02.227Z,101600
2018-01-29T02:52:31.193Z,101583
2018-01-29T02:54:59.378Z,101561
2018-01-29T02:57:27.605Z,101589
2018-01-29T02:59:55.791Z,101568
2018-01-29T03:02:24.019Z,101565
2018-01-29T03:04:52.965Z,101559
2018-01-29T03:07:21.161Z,101577
2018-01-29T03:09:49.884Z,101572
2018-01-29T03:12:18.066Z,101572
2018-01-29T03:14:46.238Z,101555
2018-01-29T03:17:14.447Z,101564
2018-01-29T03:19:43.142Z,101555
2018-01-29T03:22:11.353Z,101551
2018-01-29T03:24:40.718Z,101543
2018-01-29T03:27:09.007Z,101548
2018-01-29T03:29:37.185Z,101553
2018-01-29T03:32:05.569Z,101550
2018-01-29T03:34:34.545Z,101554
2018-01-29T03:37:02.751Z,101550
2018-01-29T03:39:30.945Z,101600
2018-01-29T03:41:59.901Z,101556
2018-01-29T03:44:28.852Z,101539
2018-01-29T03:46:57.043Z,101548
2018-01-29T03:49:25.218Z,101543
2018-01-29T03:51:54.206Z,101548
2018-01-29T03:54:22.404Z,101571
2018-01-29T03:56:51.368Z,101541
2018-01-29T03:59:19.609Z,101548
2018-01-29T04:01:47.817Z,101561
2018-01-29T04:04:16.018Z,101537
2018-01-29T04:06:45.024Z,101553
2018-01-29T04:09:13.208Z,101526
2018-01-29T04:11:41.406Z,101522
2018-01-29T04:14:09.606Z,101534
2018-01-29T04:16:37.782Z,101539
2018-01-29T04:19:05.957Z,101532
2018-01-29T04:21:34.167Z,101531
2018-01-29T04:24:02.346Z,101524
2018-01-29T04:26:30.562Z,101527
2018-01-29T04:28:58.751Z,101519
2018-01-29T04:31:26.925Z,101519
2018-01-29T04:33:55.929Z,101503
2018-01-29T04:36:24.911Z,101504
2018-01-29T04:38:53.098Z,101494
2018-01-29T04:41:21.354Z,101500
2018-01-29T04:43:49.571Z,101508
2018-01-29T04:46:18.098Z,101494
2018-01-29T04:48:46.297Z,101503
2018-01-29T04:51:15.270Z,101513
2018-01-29T04:53:43.457Z,101502
2018-01-29T04:56:11.998Z,101505
2018-01-29T04:58:40.245Z,101505
2018-01-29T05:01:08.551Z,101498
2018-01-29T05:03:36.787Z,101498
2018-01-29T05:06:05.819Z,101496
2018-01-29T05:08:34.018Z,101493
2018-01-29T05:11:02.222Z,101482
2018-01-29T05:13:31.258Z,101481
2018-01-29T05:15:59.478Z,101482
2018-01-29T05:18:28.446Z,101485
2018-01-29T05:20:56.752Z,101489
2018-01-29T05:23:25.702Z,101477
2018-01-29T05:25:53.994Z,101481
2018-01-29T05:28:22.194Z,101481
2018-01-29T05:30:51.158Z,101478
2018-01-29T05:33:19.713Z,101501
2018-01-29T05:35:51.431Z,101477
2018-01-29T05:38:23.766Z,101478
2018-01-29T05:40:52.069Z,101505
2018-01-29T05:43:21.042Z,101485
2018-01-29T05:45:49.282Z,101472
2018-01-29T05:48:17.480Z,101485
2018-01-29T05:50:45.660Z,101491
2018-01-29T05:53:13.885Z,101497
2018-01-29T05:55:42.066Z,101484
2018-01-29T05:58:10.246Z,101500
2018-01-29T06:00:38.442Z,101488
2018-01-29T06:03:07.665Z,101494
2018-01-29T06:05:36.645Z,101495
2018-01-29T06:08:04.932Z,101486
2018-01-29T06:10:33.914Z,101480
2018-01-29T06:13:02.282Z,101479
2018-01-29T06:15:30.474Z,101477
2018-01-29T06:17:59.437Z,101483
2018-01-29T06:20:27.633Z,101475
2018-01-29T06:22:55.834Z,101477
2018-01-29T06:25:24.086Z,101458
2018-01-29T06:27:53.685Z,101464
2018-01-29T06:30:22.388Z,101464
2018-01-29T06:32:51.376Z,101461
2018-01-29T06:35:20.341Z,101463
2018-01-29T06:37:48.523Z,101454
2018-01-29T06:40:16.920Z,101449
2018-01-29T06:42:45.156Z,101445
2018-01-29T06:45:13.421Z,101465
2018-01-29T06:47:41.727Z,101496
2018-01-29T06:50:09.933Z,101465
2018-01-29T06:52:38.158Z,101437
2018-01-29T06:55:07.162Z,101451
2018-01-29T06:57:35.338Z,101470
2018-01-29T07:00:03.584Z,101461
2018-01-29T07:02:32.186Z,101460
2018-01-29T07:05:00.402Z,101451
2018-01-29T07:07:28.609Z,101461
2018-01-29T07:09:57.396Z,101434
2018-01-29T07:12:25.770Z,101465
2018-01-29T07:14:53.982Z,101448
2018-01-29T07:17:22.156Z,101454
2018-01-29T07:19:50.446Z,101457
2018-01-29T07:22:19.422Z,101439
2018-01-29T07:24:47.598Z,101444
2018-01-29T07:27:15.823Z,101437
2018-01-29T07:29:44.021Z,101437
2018-01-29T07:32:12.243Z,101429
2018-01-29T07:34:41.208Z,101438
2018-01-29T07:37:09.377Z,101443
2018-01-29T07:39:37.576Z,101423
2018-01-29T07:42:06.766Z,101414
2018-01-29T07:44:35.713Z,101416
2018-01-29T07:47:03.909Z,101433
2018-01-29T07:49:32.138Z,101420
2018-01-29T07:52:00.337Z,101428
2018-01-29T07:54:28.630Z,101404
2018-01-29T07:56:56.898Z,101390
2018-01-29T07:59:25.927Z,101400
2018-01-29T08:01:54.909Z,101387
2018-01-29T08:04:23.875Z,101406
2018-01-29T08:06:52.055Z,101398
2018-01-29T08:09:20.243Z,101405
2018-01-29T08:11:48.414Z,101408
2018-01-29T08:14:16.777Z,101400
2018-01-29T08:16:44.987Z,101381
2018-01-29T08:19:13.941Z,101405
2018-01-29T08:21:42.129Z,101392
2018-01-29T08:24:10.325Z,101409
2018-01-29T08:26:39.309Z,101403
2018-01-29T08:29:07.741Z,101376
2018-01-29T08:31:35.931Z,101373
2018-01-29T08:34:04.133Z,101374
2018-01-29T08:36:33.117Z,101372
2018-01-29T08:39:01.322Z,101378
2018-01-29T08:41:29.502Z,101429
2018-01-29T08:46:54.963Z,101357
2018-01-29T08:49:24.073Z,101340
2018-01-29T08:51:52.262Z,101340
2018-01-29T08:54:20.476Z,101337
2018-01-29T08:56:48.662Z,101334
2018-01-29T08:59:16.865Z,101321
2018-01-29T09:01:45.169Z,101359
2018-01-29T09:04:14.126Z,101326
2018-01-29T09:06:42.329Z,101324
2018-01-29T09:09:11.350Z,101328
2018-01-29T09:11:39.539Z,101315
2018-01-29T09:14:07.718Z,101320
2018-01-29T09:16:35.922Z,101327
2018-01-29T09:19:04.313Z,101306
2018-01-29T09:21:33.386Z,101303
2018-01-29T09:24:02.043Z,101317
2018-01-29T09:26:30.215Z,101306
2018-01-29T09:28:58.388Z,101309
2018-01-29T09:31:26.943Z,101325
2018-01-29T09:33:55.918Z,101318
2018-01-29T09:36:24.878Z,101323
2018-01-29T09:38:53.162Z,101322
2018-01-29T09:41:21.359Z,101321
2018-01-29T09:43:50.325Z,101318
2018-01-29T09:46:18.626Z,101315
2018-01-29T09:48:47.593Z,101309
2018-01-29T09:51:15.778Z,101318
2018-01-29T09:53:44.062Z,101333
2018-01-29T09:56:13.008Z,101319
2018-01-29T09:58:41.176Z,101308
2018-01-29T10:01:09.734Z,101341
2018-01-29T10:03:37.962Z,101318
2018-01-29T10:06:06.161Z,101311
2018-01-29T10:08:35.166Z,101315
2018-01-29T10:11:03.453Z,101325
2018-01-29T10:13:31.675Z,101326
2018-01-29T10:15:59.954Z,101326
2018-01-29T10:18:28.158Z,101319
2018-01-29T10:20:57.129Z,101322
2018-01-29T10:23:26.173Z,101301
2018-01-29T10:25:54.354Z,101306
2018-01-29T10:28:22.562Z,101314
2018-01-29T10:30:50.745Z,101292
2018-01-29T10:33:18.922Z,101304
2018-01-29T10:35:47.921Z,101308
2018-01-29T10:38:16.889Z,101306
2018-01-29T10:40:45.182Z,101298
2018-01-29T10:43:14.183Z,101298
2018-01-29T10:45:43.133Z,101299
2018-01-29T10:48:11.345Z,101293
2018-01-29T10:50:40.314Z,101286
2018-01-29T10:53:08.490Z,101300
2018-01-29T10:55:37.082Z,101283
2018-01-29T10:58:05.258Z,101270
2018-01-29T11:00:39.804Z,101288
2018-01-29T11:03:08.017Z,101266
2018-01-29T11:05:36.705Z,101269
2018-01-29T11:08:04.915Z,101262
2018-01-29T11:10:33.910Z,101250
2018-01-29T11:13:02.914Z,101255
2018-01-29T11:15:31.881Z,101259
2018-01-29T11:18:00.062Z,101287
2018-01-29T11:20:29.045Z,101247
2018-01-29T11:22:57.241Z,101265
2018-01-29T11:25:26.202Z,101262
2018-01-29T11:27:54.434Z,101255
2018-01-29T11:30:22.622Z,101259
2018-01-29T11:32:51.067Z,101250
2018-01-29T11:35:20.016Z,101241
2018-01-29T11:37:48.215Z,101236
2018-01-29T11:40:17.210Z,101250
2018-01-29T11:42:46.194Z,101222
2018-01-29T11:45:14.402Z,101220
2018-01-29T11:47:42.605Z,101236
2018-01-29T11:50:10.800Z,101214
2018-01-29T11:52:38.995Z,101207
2018-01-29T11:55:07.987Z,101209
2018-01-29T11:57:36.930Z,101214
2018-01-29T12:00:05.106Z,101202
2018-01-29T12:02:33.310Z,101214
2018-01-29T12:05:01.598Z,101206
2018-01-29T12:07:30.591Z,101201
2018-01-29T12:09:59.561Z,101197
2018-01-29T12:12:27.842Z,101209
2018-01-29T12:14:56.120Z,101195
2018-01-29T12:17:25.116Z,101190
2018-01-29T12:19:54.002Z,101188
2018-01-29T12:22:22.290Z,101178
2018-01-29T12:24:51.283Z,101171
2018-01-29T12:27:20.401Z,101172
2018-01-29T12:29:48.629Z,101167
2018-01-29T12:32:17.518Z,101164
2018-01-29T12:34:45.822Z,101166
2018-01-29T12:37:14.809Z,101153
2018-01-29T12:39:43.766Z,101165
2018-01-29T12:42:12.134Z,101148
2018-01-29T12:44:40.437Z,101143
2018-01-29T12:47:08.711Z,101146
2018-01-29T12:49:37.038Z,101149
2018-01-29T12:52:05.662Z,101171
2018-01-29T12:54:33.907Z,101134
2018-01-29T12:57:02.118Z,101125
2018-01-29T12:59:30.320Z,101092
2018-01-29T13:01:58.585Z,101085
2018-01-29T13:04:28.077Z,101099
2018-01-29T13:06:57.101Z,101085
2018-01-29T13:09:25.287Z,101073
2018-01-29T13:11:53.491Z,101067
2018-01-29T13:14:21.706Z,101073
2018-01-29T13:16:50.682Z,101073
2018-01-29T13:19:19.382Z,101045
2018-01-29T13:21:48.350Z,101076
2018-01-29T13:24:16.629Z,101071
2018-01-29T13:26:44.802Z,101063
2018-01-29T13:29:12.997Z,101076
2018-01-29T13:31:41.990Z,101072
2018-01-29T13:34:10.213Z,101075
2018-01-29T13:36:38.394Z,101064
2018-01-29T13:39:07.229Z,101067
2018-01-29T13:41:36.181Z,101082
2018-01-29T13:44:04.867Z,101045
2018-01-29T13:46:33.082Z,101054
2018-01-29T13:49:01.262Z,101044
2018-01-29T13:51:29.465Z,101059
2018-01-29T13:53:57.694Z,101060
2018-01-29T13:56:26.671Z,101063
2018-01-29T13:58:54.862Z,101068
2018-01-29T14:01:23.824Z,101027
2018-01-29T14:03:52.696Z,101021
2018-01-29T14:06:20.912Z,101018
2018-01-29T14:08:49.874Z,101010
2018-01-29T14:11:18.262Z,101016
2018-01-29T14:13:46.458Z,101004
2018-01-29T14:16:15.609Z,101016
2018-01-29T14:18:43.883Z,101008
2018-01-29T14:21:12.094Z,101011
2018-01-29T14:23:41.109Z,101015
2018-01-29T14:26:09.312Z,100988
2018-01-29T14:28:37.498Z,101105
2018-01-29T14:31:05.703Z,100983
2018-01-29T14:33:33.915Z,100987
2018-01-29T14:36:02.872Z,100989
2018-01-29T14:38:31.089Z,100985
2018-01-29T14:40:59.302Z,100981
2018-01-29T14:43:27.511Z,100979
2018-01-29T14:45:55.713Z,100985
2018-01-29T14:48:23.951Z,100985
2018-01-29T14:50:52.932Z,100964
2018-01-29T14:53:21.121Z,100985
2018-01-29T14:55:50.086Z,101007
2018-01-29T14:58:18.381Z,101030
2018-01-29T15:00:47.358Z,100991
2018-01-29T15:03:15.572Z,101030
2018-01-29T15:05:43.762Z,100980
2018-01-29T15:08:11.962Z,100990
2018-01-29T15:10:40.235Z,100983
2018-01-29T15:13:08.459Z,100987
2018-01-29T15:15:37.258Z,100992
2018-01-29T15:18:05.462Z,100966
2018-01-29T15:20:33.650Z,100966
2018-01-29T15:23:01.823Z,100954
2018-01-29T15:25:30.034Z,100958
2018-01-29T15:27:59.115Z,101024
2018-01-29T15:30:28.066Z,100958
2018-01-29T15:32:56.311Z,100946
2018-01-29T15:35:24.537Z,100954
2018-01-29T15:37:52.871Z,100965
2018-01-29T15:40:21.073Z,100943
2018-01-29T15:42:49.281Z,100939
2018-01-29T15:45:18.262Z,100980
2018-01-29T15:47:46.447Z,100961
2018-01-29T15:50:15.444Z,100944
2018-01-29T15:52:44.394Z,100922
2018-01-29T15:55:12.683Z,100930
2018-01-29T15:57:40.886Z,100913
2018-01-29T16:00:09.862Z,100927
2018-01-29T16:02:38.070Z,100912
2018-01-29T16:05:06.249Z,100937
2018-01-29T16:07:35.562Z,100916
2018-01-29T16:10:03.806Z,100995
2018-01-29T16:12:32.765Z,100934
2018-01-29T16:15:00.954Z,100934
2018-01-29T16:17:29.910Z,100910
2018-01-29T16:19:58.218Z,100915
2018-01-29T16:22:27.161Z,100925
2018-01-29T16:24:55.364Z,100875
2018-01-29T16:27:23.567Z,100910
2018-01-29T16:29:52.526Z,100950
2018-01-29T16:32:20.798Z,100901
2018-01-29T16:34:49.003Z,100894
2018-01-29T16:37:17.970Z,100894
2018-01-29T16:39:46.174Z,100905
2018-01-29T16:42:15.594Z,100909
2018-01-29T16:44:43.912Z,100882
2018-01-29T16:47:12.113Z,100906
2018-01-29T16:49:41.086Z,100898
2018-01-29T16:52:09.358Z,100900
2018-01-29T16:54:37.589Z,100907
2018-01-29T16:57:05.804Z,100903
2018-01-29T16:59:33.993Z,100883
2018-01-29T17:02:02.258Z,100912
2018-01-29T17:04:30.458Z,100890
2018-01-29T17:06:59.452Z,100892
2018-01-29T17:09:28.385Z,100899
2018-01-29T17:11:56.578Z,100881
2018-01-29T17:14:24.895Z,100885
2018-01-29T17:16:53.838Z,100911
2018-01-29T17:19:22.015Z,100898
2018-01-29T17:21:50.205Z,100887
2018-01-29T17:24:18.386Z,100878
2018-01-29T17:26:46.610Z,100865
2018-01-29T17:29:14.847Z,100871
2018-01-29T17:31:43.791Z,100882
2018-01-29T17:34:12.052Z,100865
2018-01-29T17:36:40.256Z,100864
2018-01-29T17:39:08.442Z,100861
2018-01-29T17:41:36.634Z,100867
2018-01-29T17:44:05.621Z,100849
2018-01-29T17:46:34.618Z,100852
2018-01-29T17:49:03.606Z,100853
2018-01-29T17:51:32.565Z,100859
2018-01-29T17:54:00.793Z,100844
2018-01-29T17:56:28.967Z,100839
2018-01-29T17:58:57.178Z,100831
2018-01-29T18:01:25.382Z,100838
2018-01-29T18:03:53.553Z,100845
2018-01-29T18:06:21.718Z,100825
2018-01-29T18:08:50.335Z,100825
2018-01-29T18:11:18.874Z,100824
2018-01-29T18:13:47.154Z,100829
2018-01-29T18:16:15.336Z,100811
2018-01-29T18:18:43.533Z,100815
2018-01-29T18:21:12.507Z,100804
2018-01-29T18:23:40.702Z,100808
2018-01-29T18:26:09.652Z,100827
2018-01-29T18:28:37.858Z,100802
2018-01-29T18:31:06.802Z,100790
2018-01-29T18:33:35.002Z,100805
2018-01-29T18:36:03.176Z,100804
2018-01-29T18:38:31.360Z,100787
2018-01-29T18:40:59.558Z,100805
2018-01-29T18:43:27.734Z,100869
2018-01-29T18:45:55.956Z,100815
2018-01-29T18:48:24.168Z,100816
2018-01-29T18:50:53.139Z,100815
2018-01-29T18:53:21.318Z,100806
2018-01-29T18:55:49.558Z,100816
2018-01-29T18:58:17.761Z,100810
2018-01-29T19:00:45.962Z,100811
2018-01-29T19:03:14.177Z,100823
2018-01-29T19:05:42.394Z,100819
2018-01-29T19:08:11.363Z,100818
2018-01-29T19:10:39.638Z,100801
2018-01-29T19:13:07.838Z,100792
2018-01-29T19:15:36.778Z,100803
2018-01-29T19:18:04.976Z,100845
2018-01-29T19:20:33.773Z,100803
2018-01-29T19:23:01.983Z,100794
2018-01-29T19:25:30.198Z,100810
2018-01-29T19:27:58.416Z,100800
2018-01-29T19:30:27.377Z,100787
2018-01-29T19:32:55.557Z,100813
2018-01-29T19:35:23.761Z,100794
2018-01-29T19:37:52.101Z,100779
2018-01-29T19:40:20.282Z,100784
2018-01-29T19:42:48.462Z,100784
2018-01-29T19:45:17.621Z,100791
2018-01-29T19:47:45.802Z,100791
2018-01-29T19:50:14.047Z,100776
2018-01-29T19:52:42.299Z,100793
2018-01-29T19:55:10.556Z,100793
2018-01-29T19:57:38.726Z,100794
2018-01-29T20:00:06.977Z,100782
2018-01-29T20:02:35.199Z,100797
2018-01-29T20:05:04.336Z,100788
2018-01-29T20:07:32.556Z,100792
2018-01-29T20:10:01.540Z,100790
2018-01-29T20:12:29.760Z,100791
2018-01-29T20:14:57.978Z,100791
2018-01-29T20:17:26.182Z,100789
2018-01-29T20:19:55.166Z,100834
2018-01-29T20:22:24.182Z,100817
2018-01-29T20:24:52.405Z,100823
2018-01-29T20:27:20.606Z,100822
2018-01-29T20:29:49.553Z,100830
2018-01-29T20:32:17.879Z,100839
2018-01-29T20:34:46.836Z,100850
2018-01-29T20:37:15.115Z,100862
2018-01-29T20:39:43.328Z,100868
2018-01-29T20:42:11.533Z,100884
2018-01-29T20:44:39.761Z,100894
2018-01-29T20:47:08.704Z,100881
2018-01-29T20:49:36.894Z,100888
2018-01-29T20:52:05.093Z,100897
2018-01-29T20:54:34.062Z,100911
2018-01-29T20:57:02.259Z,100900
2018-01-29T20:59:31.224Z,100903
2018-01-29T21:01:59.499Z,100924
2018-01-29T21:04:27.770Z,100928
2018-01-29T21:06:55.950Z,100928
2018-01-29T21:09:24.173Z,100930
2018-01-29T21:11:52.394Z,100939
2018-01-29T21:14:20.569Z,100945
2018-01-29T21:16:48.746Z,100946
2018-01-29T21:19:16.927Z,100940
2018-01-29T21:21:45.898Z,100959
2018-01-29T21:24:14.604Z,100954
2018-01-29T21:26:42.862Z,100972
2018-01-29T21:29:11.180Z,100967
2018-01-29T21:31:39.354Z,100976
2018-01-29T21:34:07.587Z,100981
2018-01-29T21:36:35.868Z,100971
2018-01-29T21:39:04.062Z,100977
2018-01-29T21:41:32.999Z,100981
2018-01-29T21:44:01.175Z,100986
2018-01-29T21:46:29.401Z,101000
2018-01-29T21:48:58.376Z,101009
2018-01-29T21:51:26.542Z,101011
2018-01-29T21:53:54.709Z,101013
2018-01-29T21:56:23.622Z,101025
2018-01-29T21:58:52.613Z,101034
2018-01-29T22:01:21.550Z,101020
2018-01-29T22:03:49.762Z,101030
2018-01-29T22:06:17.974Z,101041
2018-01-29T22:08:46.171Z,101033
2018-01-29T22:11:15.890Z,101037
2018-01-29T22:13:44.082Z,101054
2018-01-29T22:16:13.850Z,101058
2018-01-29T22:18:42.062Z,101048
2018-01-29T22:21:10.258Z,101076
2018-01-29T22:23:38.435Z,101082
2018-01-29T22:26:07.435Z,101082
2018-01-29T22:28:36.436Z,101084
2018-01-29T22:31:05.418Z,101087
2018-01-29T22:33:34.386Z,101090
2018-01-29T22:36:02.586Z,101094
2018-01-29T22:38:31.585Z,101101
2018-01-29T22:41:00.554Z,101096
2018-01-29T22:43:28.814Z,101107
2018-01-29T22:45:57.005Z,101115
2018-01-29T22:48:25.287Z,101116
2018-01-29T22:50:54.258Z,101111
2018-01-29T22:53:22.473Z,101126
2018-01-29T22:55:50.661Z,101140
2018-01-29T22:58:18.848Z,101157
2018-01-29T23:00:47.066Z,101156
2018-01-29T23:03:15.262Z,101156
2018-01-29T23:05:43.442Z,101160
2018-01-29T23:08:11.727Z,101160
2018-01-29T23:10:39.921Z,101169
2018-01-29T23:13:08.146Z,101176
2018-01-29T23:15:37.119Z,101174
2018-01-29T23:18:05.390Z,101183
2018-01-29T23:20:33.711Z,101185
2018-01-29T23:23:01.962Z,101186
2018-01-29T23:25:30.947Z,101207
2018-01-29T23:27:59.141Z,101199
2018-01-29T23:30:27.338Z,101200
2018-01-29T23:32:55.565Z,101194
2018-01-29T23:35:23.748Z,101202
2018-01-29T23:37:52.701Z,101206
2018-01-29T23:40:20.994Z,101215
2018-01-29T23:42:49.190Z,101216
2018-01-29T23:45:18.154Z,101215
2018-01-29T23:47:46.360Z,101220
2018-01-29T23:50:15.326Z,101228
2018-01-29T23:52:43.630Z,101230
2018-01-29T23:55:12.595Z,101241
2018-01-29T23:57:40.872Z,101247
